Time;durP1;ratioP1;P1;durP2;ratioP2;P2;SDS_P1;SDS_P2;PMS_P1;PMS_P2;Temp;Humidity;BMP_temperature;BMP_pressure;BME280_temperature;BME280_humidity;BME280_pressure;Samples;Min_cycle;Max_cycle;Signal;HPM_P1;HPM_P2
2021/04/18 00:01:33;;;;;;;12.10;6.60;;;;;;;8.51;56.06;100883.31;5130990;27;20107;-82
2021/04/18 00:03:59;;;;;;;14.90;7.60;;;;;;;8.55;56.50;100899.94;5107798;28;20051;-83
2021/04/18 00:06:26;;;;;;;10.05;6.68;;;;;;;8.49;56.44;100885.19;5131865;27;20047;-82
2021/04/18 00:08:54;;;;;;;9.90;6.60;;;;;;;8.44;56.34;100889.72;5127802;27;20071;-83
2021/04/18 00:11:21;;;;;;;14.43;7.30;;;;;;;8.47;56.64;100886.13;5124079;28;20104;-83
2021/04/18 00:13:47;;;;;;;11.20;7.18;;;;;;;8.44;56.74;100887.94;5122233;27;20110;-83
2021/04/18 00:16:14;;;;;;;8.75;6.43;;;;;;;8.44;56.89;100890.59;5124008;27;20046;-83
2021/04/18 00:18:41;;;;;;;11.48;6.57;;;;;;;8.43;56.39;100886.22;5121916;27;20636;-83
2021/04/18 00:21:07;;;;;;;12.00;7.05;;;;;;;8.41;56.58;100877.47;5116667;27;20138;-84
2021/04/18 00:23:33;;;;;;;12.02;6.90;;;;;;;8.43;57.25;100885.34;5115449;27;20050;-85
2021/04/18 00:26:00;;;;;;;13.32;7.35;;;;;;;8.40;56.69;100874.88;5120665;27;20794;-84
2021/04/18 00:28:28;;;;;;;9.40;6.78;;;;;;;8.28;56.58;100869.94;5125337;27;20059;-83
2021/04/18 00:30:55;;;;;;;11.68;7.05;;;;;;;8.26;57.48;100872.63;5102210;28;20070;-84
2021/04/18 00:33:24;;;;;;;11.82;7.00;;;;;;;8.20;57.29;100867.53;5113492;28;20039;-83
2021/04/18 00:35:51;;;;;;;11.10;6.72;;;;;;;8.18;57.38;100868.50;5114527;27;20077;-83
2021/04/18 00:38:19;;;;;;;12.05;7.22;;;;;;;8.18;57.34;100866.72;5119150;27;20143;-84
2021/04/18 00:40:46;;;;;;;11.75;7.05;;;;;;;8.20;57.54;100867.53;5117185;27;20131;-81
2021/04/18 00:43:12;;;;;;;11.93;7.18;;;;;;;8.25;57.99;100867.41;5115559;28;20067;-84
2021/04/18 00:45:38;;;;;;;10.55;6.93;;;;;;;8.24;57.90;100863.03;5112923;27;20542;-84
2021/04/18 00:48:05;;;;;;;11.77;7.10;;;;;;;8.28;57.77;100857.63;5125954;27;20043;-83
2021/04/18 00:50:35;;;;;;;10.57;7.10;;;;;;;8.28;57.40;100864.69;5133254;27;20115;-83
2021/04/18 00:53:10;;;;;;;13.57;7.50;;;;;;;8.26;57.91;100866.50;5117870;27;20079;-83
2021/04/18 00:55:42;;;;;;;12.23;7.43;;;;;;;8.21;57.52;100863.13;5128673;27;20038;-84
2021/04/18 00:58:10;;;;;;;13.05;7.38;;;;;;;8.16;57.90;100852.72;5133638;27;20078;-84
2021/04/18 01:00:37;;;;;;;13.35;7.20;;;;;;;8.08;58.02;100839.75;5135983;27;20072;-85
2021/04/18 01:03:06;;;;;;;10.38;7.00;;;;;;;8.18;58.14;100860.59;5119257;28;20367;-84
2021/04/18 01:05:38;;;;;;;11.48;6.88;;;;;;;8.14;58.10;100861.59;5120724;28;20599;-83
2021/04/18 01:08:09;;;;;;;11.00;7.07;;;;;;;8.10;58.47;100866.94;5113063;28;20122;-84
2021/04/18 01:10:36;;;;;;;12.40;7.13;;;;;;;8.08;58.46;100857.34;5116367;27;20044;-84
2021/04/18 01:13:03;;;;;;;12.30;7.10;;;;;;;8.08;58.50;100857.34;5109932;27;20048;-83
2021/04/18 01:15:29;;;;;;;12.35;7.10;;;;;;;8.07;58.53;100850.34;5113748;27;20455;-84
2021/04/18 01:17:55;;;;;;;10.90;6.80;;;;;;;8.06;58.61;100843.34;5094243;27;20086;-83
2021/04/18 01:20:25;;;;;;;9.75;6.82;;;;;;;8.11;58.65;100841.44;5095245;28;20086;-83
2021/04/18 01:22:52;;;;;;;12.43;7.07;;;;;;;8.13;58.87;100842.25;5111056;27;20073;-83
2021/04/18 01:25:19;;;;;;;13.30;7.53;;;;;;;8.18;58.42;100842.13;5112383;27;20795;-82
2021/04/18 01:27:47;;;;;;;10.25;6.53;;;;;;;8.22;58.78;100835.81;5109660;27;20048;-83
2021/04/18 01:30:21;;;;;;;12.65;7.40;;;;;;;8.23;58.49;100834.91;5109616;27;20043;-82
2021/04/18 01:32:49;;;;;;;11.68;7.10;;;;;;;8.24;58.73;100834.00;5112737;28;20127;-84
2021/04/18 01:35:18;;;;;;;13.45;7.07;;;;;;;8.19;58.59;100823.59;5114209;27;20107;-83
2021/04/18 01:37:44;;;;;;;12.25;6.57;;;;;;;8.24;58.39;100836.66;5115572;27;20047;-85
2021/04/18 01:40:13;;;;;;;10.52;6.82;;;;;;;8.19;58.57;100836.78;5113582;27;20434;-84
2021/04/18 01:42:41;;;;;;;12.63;7.93;;;;;;;8.20;58.81;100840.28;5097125;28;20044;-84
2021/04/18 01:45:10;;;;;;;10.95;7.38;;;;;;;8.24;58.78;100834.88;5112717;28;20048;-84
2021/04/18 01:47:37;;;;;;;10.45;6.90;;;;;;;8.24;58.43;100841.91;5120003;27;20047;-83
2021/04/18 01:50:08;;;;;;;11.15;7.35;;;;;;;8.24;58.32;100834.00;5112387;27;20056;-83
2021/04/18 01:52:35;;;;;;;15.18;6.78;;;;;;;8.24;58.45;100837.50;5116116;27;20043;-84
2021/04/18 01:55:04;;;;;;;11.55;7.03;;;;;;;8.20;58.70;100835.00;5117547;27;20413;-84
2021/04/18 01:57:32;;;;;;;12.77;7.43;;;;;;;8.24;58.58;100836.66;5118449;27;20126;-84
2021/04/18 01:59:58;;;;;;;14.38;7.53;;;;;;;8.23;58.30;100842.84;5129427;27;20035;-85
2021/04/18 02:02:25;;;;;;;12.25;7.30;;;;;;;8.22;58.36;100844.59;5119634;28;20051;-82
2021/04/18 02:04:53;;;;;;;12.07;6.95;;;;;;;8.22;58.44;100844.59;5134993;28;20055;-85
2021/04/18 02:07:20;;;;;;;9.98;6.70;;;;;;;8.23;58.12;100832.28;5136682;27;20067;-83
2021/04/18 02:09:46;;;;;;;12.85;7.78;;;;;;;8.22;57.88;100830.56;5129337;28;20070;-83
2021/04/18 02:12:12;;;;;;;13.90;7.20;;;;;;;8.21;58.09;100834.09;5123975;28;20083;-84
2021/04/18 02:14:39;;;;;;;13.85;7.82;;;;;;;8.25;57.97;100843.66;5128841;27;20046;-85
2021/04/18 02:17:06;;;;;;;13.40;7.43;;;;;;;8.25;58.64;100843.66;5122803;28;20071;-83
2021/04/18 02:19:35;;;;;;;13.25;7.28;;;;;;;8.27;58.34;100840.06;5136581;27;20096;-82
2021/04/18 02:22:01;;;;;;;13.35;7.63;;;;;;;8.28;58.51;100841.78;5128544;28;20052;-83
2021/04/18 02:24:28;;;;;;;10.23;7.05;;;;;;;8.30;58.50;100829.41;5116310;28;20048;-83
2021/04/18 02:26:57;;;;;;;12.30;7.85;;;;;;;8.35;58.08;100839.84;5116784;28;20051;-83
2021/04/18 02:29:24;;;;;;;11.13;7.22;;;;;;;8.32;58.49;100826.78;5119725;27;20099;-85
2021/04/18 02:31:51;;;;;;;9.82;7.28;;;;;;;8.36;58.25;100828.38;5109298;28;20142;-83
2021/04/18 02:34:18;;;;;;;11.07;7.20;;;;;;;8.34;58.30;100828.44;5117803;28;20111;-83
2021/04/18 02:36:44;;;;;;;12.02;7.47;;;;;;;8.38;58.45;100829.19;5117603;28;20123;-84
2021/04/18 02:39:13;;;;;;;15.57;7.90;;;;;;;8.39;58.34;100825.66;5121073;28;20051;-84
2021/04/18 02:41:39;;;;;;;10.93;7.18;;;;;;;8.39;58.48;100821.25;5120802;28;22106;-83
2021/04/18 02:44:06;;;;;;;14.98;7.75;;;;;;;8.36;58.46;100823.09;5122477;28;20107;-85
2021/04/18 02:46:32;;;;;;;12.32;7.55;;;;;;;8.33;58.64;100820.59;5140738;28;20117;-85
2021/04/18 02:49:01;;;;;;;13.00;7.43;;;;;;;8.34;58.89;100822.31;5115506;28;20091;-85
2021/04/18 02:51:27;;;;;;;12.98;7.80;;;;;;;8.36;59.24;100820.47;5130903;28;20117;-83
2021/04/18 02:53:57;;;;;;;12.35;7.35;;;;;;;8.40;59.11;100827.38;5130808;28;20051;-84
2021/04/18 02:56:24;;;;;;;12.75;7.35;;;;;;;8.37;58.96;100822.19;5123446;28;20051;-84
2021/04/18 02:58:50;;;;;;;14.20;8.70;;;;;;;8.38;59.20;100827.44;5113017;28;20165;-83
2021/04/18 03:01:16;;;;;;;12.98;7.80;;;;;;;8.39;58.85;100826.53;5119429;28;20130;-84
2021/04/18 03:03:44;;;;;;;11.88;7.57;;;;;;;8.36;59.27;100823.09;5102244;28;20055;-84
2021/04/18 03:06:31;;;;;;;15.57;7.47;;;;;;;8.35;59.35;100830.16;5122274;28;20143;-84
2021/04/18 03:08:59;;;;;;;14.43;8.23;;;;;;;8.34;59.33;100828.44;5110130;27;20470;-84
2021/04/18 03:11:31;;;;;;;14.02;7.80;;;;;;;8.30;59.21;100823.28;5133292;28;20157;-85
2021/04/18 03:13:57;;;;;;;12.75;8.05;;;;;;;8.31;59.38;100819.72;5105348;28;20103;-82
2021/04/18 03:16:24;;;;;;;13.02;8.13;;;;;;;8.31;59.43;100825.00;5101289;28;20512;-82
2021/04/18 03:18:50;;;;;;;15.27;7.15;;;;;;;8.31;59.58;100822.38;5124952;28;20043;-85
2021/04/18 03:21:19;;;;;;;13.10;8.13;;;;;;;8.32;59.66;100814.44;5127192;28;20040;-81
2021/04/18 03:23:45;;;;;;;12.75;7.38;;;;;;;8.36;59.66;100821.31;5111547;28;20431;-81
2021/04/18 03:26:11;;;;;;;14.43;7.53;;;;;;;8.37;59.22;100822.19;5098015;28;20051;-82
2021/04/18 03:28:41;;;;;;;12.88;7.85;;;;;;;8.34;59.03;100822.31;5113285;28;20063;-82
2021/04/18 03:31:07;;;;;;;14.02;8.23;;;;;;;8.30;59.47;100828.56;5115858;28;20062;-82
2021/04/18 03:33:34;;;;;;;12.30;7.15;;;;;;;8.30;59.56;100825.91;5118109;28;20047;-82
2021/04/18 03:36:01;;;;;;;12.00;7.18;;;;;;;8.28;59.42;100822.47;5113988;28;20422;-84
2021/04/18 03:38:27;;;;;;;14.48;7.68;;;;;;;8.27;59.27;100826.00;5118980;27;20044;-82
2021/04/18 03:40:55;;;;;;;11.82;7.43;;;;;;;8.27;59.61;100834.78;5118248;27;20062;-82
2021/04/18 03:43:21;;;;;;;11.07;7.45;;;;;;;8.25;59.61;100826.06;5099170;28;20127;-83
2021/04/18 03:45:47;;;;;;;12.77;8.00;;;;;;;8.25;59.55;100833.09;5117579;27;20121;-83
2021/04/18 03:48:14;;;;;;;13.73;8.25;;;;;;;8.25;60.45;100822.53;5111942;27;20047;-83
2021/04/18 03:50:41;;;;;;;11.68;7.93;;;;;;;8.27;60.69;100829.50;5115827;27;20051;-85
2021/04/18 03:53:07;;;;;;;14.98;8.65;;;;;;;8.30;60.83;100828.56;5127936;28;20103;-83
2021/04/18 03:55:36;;;;;;;11.38;7.80;;;;;;;8.34;60.83;100832.88;5115610;28;20054;-83
2021/04/18 03:58:03;;;;;;;14.10;8.10;;;;;;;8.30;60.75;100831.19;5130285;28;20055;-83
2021/04/18 04:00:29;;;;;;;14.00;8.25;;;;;;;8.28;61.07;100833.88;5130744;27;20024;-83
2021/04/18 04:02:55;;;;;;;12.40;8.02;;;;;;;8.23;61.07;100841.06;5111264;27;20044;-82
2021/04/18 04:05:21;;;;;;;15.00;8.50;;;;;;;8.21;62.63;100828.81;5112172;28;20231;-84
2021/04/18 04:07:47;;;;;;;13.88;8.30;;;;;;;8.16;62.43;100825.47;5125472;28;20139;-82
2021/04/18 04:10:14;;;;;;;14.93;8.32;;;;;;;8.18;62.66;100836.84;5104561;27;20043;-83
2021/04/18 04:12:42;;;;;;;13.25;8.73;;;;;;;8.15;63.89;100834.28;5101838;28;20048;-83
2021/04/18 04:15:10;;;;;;;13.65;8.40;;;;;;;8.09;63.19;100827.41;5125952;27;20059;-83
2021/04/18 04:17:37;;;;;;;15.30;8.73;;;;;;;8.05;64.75;100837.19;5129202;27;20398;-83
2021/04/18 04:20:04;;;;;;;14.60;9.15;;;;;;;8.02;65.55;100825.91;5130255;27;20099;-85
2021/04/18 04:22:30;;;;;;;13.02;7.97;;;;;;;8.03;65.10;100836.38;5125008;27;20044;-85
2021/04/18 04:24:59;;;;;;;16.08;8.93;;;;;;;7.99;65.03;100837.41;5124551;27;20119;-85
2021/04/18 04:27:25;;;;;;;16.50;9.13;;;;;;;7.95;65.77;100835.75;5130945;27;20071;-85
2021/04/18 04:29:56;;;;;;;13.52;8.85;;;;;;;7.91;66.67;100833.22;5112099;28;20048;-84
2021/04/18 04:32:22;;;;;;;13.25;9.15;;;;;;;7.91;67.32;100828.81;5135399;27;20030;-85
2021/04/18 04:34:48;;;;;;;13.77;8.93;;;;;;;7.93;67.58;100827.00;5131812;27;20081;-84
2021/04/18 04:37:15;;;;;;;13.80;8.75;;;;;;;7.94;68.29;100828.75;5128396;27;20063;-85
2021/04/18 04:39:42;;;;;;;13.73;9.07;;;;;;;7.89;68.12;100829.78;5130621;27;20052;-84
2021/04/18 04:42:09;;;;;;;14.20;8.55;;;;;;;7.87;68.10;100834.25;5132250;27;20047;-84
2021/04/18 04:44:35;;;;;;;12.77;9.23;;;;;;;7.81;68.66;100831.78;5130498;27;20050;-82
2021/04/18 04:47:01;;;;;;;15.65;9.95;;;;;;;7.78;69.04;100822.19;5123827;27;20051;-84
2021/04/18 04:49:28;;;;;;;16.15;9.77;;;;;;;7.73;69.59;100826.72;5119630;27;20594;-84
2021/04/18 04:51:54;;;;;;;12.25;9.38;;;;;;;7.67;69.78;100822.50;5126528;27;20102;-83
2021/04/18 04:54:22;;;;;;;15.85;9.98;;;;;;;7.70;70.61;100829.47;5121452;27;20070;-84
2021/04/18 04:56:48;;;;;;;13.80;10.00;;;;;;;7.70;71.06;100829.47;5118320;27;20146;-83
2021/04/18 04:59:15;;;;;;;15.45;10.13;;;;;;;7.67;70.58;100837.44;5115798;27;20071;-83
2021/04/18 05:01:41;;;;;;;16.23;10.20;;;;;;;7.68;70.73;100831.28;5124476;27;20054;-84
2021/04/18 05:04:10;;;;;;;16.40;9.77;;;;;;;7.71;70.16;100833.81;5123483;27;20149;-83
2021/04/18 05:06:39;;;;;;;17.77;9.90;;;;;;;7.78;71.55;100834.50;5133376;27;20044;-83
2021/04/18 05:09:05;;;;;;;15.77;9.95;;;;;;;7.84;71.78;100832.56;5132036;28;20063;-84
2021/04/18 05:11:32;;;;;;;15.38;10.13;;;;;;;7.86;72.47;100822.84;5127623;27;20078;-82
2021/04/18 05:13:59;;;;;;;16.13;10.07;;;;;;;7.94;72.89;100826.09;5122099;27;20047;-84
2021/04/18 05:16:25;;;;;;;14.00;9.60;;;;;;;7.97;73.58;100828.66;5129078;27;20106;-83
2021/04/18 05:18:51;;;;;;;14.65;10.15;;;;;;;8.04;73.66;100835.47;5138656;27;20054;-84
2021/04/18 05:21:17;;;;;;;16.80;10.40;;;;;;;8.04;73.47;100835.47;5136359;27;20090;-79
2021/04/18 05:23:47;;;;;;;15.48;10.50;;;;;;;8.05;73.30;100842.47;5130933;28;20039;-82
2021/04/18 05:26:13;;;;;;;19.70;11.02;;;;;;;8.03;74.46;100846.06;5119645;28;20115;-83
2021/04/18 05:28:39;;;;;;;18.08;10.70;;;;;;;7.99;75.35;100855.84;5121795;28;20112;-83
2021/04/18 05:31:05;;;;;;;16.27;10.85;;;;;;;7.99;75.94;100858.50;5128502;28;20478;-84
2021/04/18 05:33:31;;;;;;;20.33;11.23;;;;;;;7.96;75.63;100866.47;5134823;27;20043;-84
2021/04/18 05:35:59;;;;;;;16.80;10.75;;;;;;;7.94;75.66;100863.03;5115225;28;20083;-84
2021/04/18 05:38:26;;;;;;;17.38;11.10;;;;;;;7.93;76.63;100869.19;5112818;27;20139;-83
2021/04/18 05:40:52;;;;;;;13.75;10.65;;;;;;;7.91;76.47;100871.00;5114400;27;20483;-83
2021/04/18 05:43:19;;;;;;;16.05;11.32;;;;;;;7.89;76.94;100871.97;5114770;27;20151;-84
2021/04/18 05:45:59;;;;;;;15.23;11.30;;;;;;;7.87;77.34;100868.53;5114344;27;20058;-84
2021/04/18 05:48:26;;;;;;;15.27;10.77;;;;;;;7.88;77.76;100878.13;5116537;27;20048;-85
2021/04/18 05:50:53;;;;;;;18.77;11.20;;;;;;;7.91;78.26;100871.00;5113411;27;20054;-83
2021/04/18 05:53:19;;;;;;;17.80;11.18;;;;;;;7.95;78.31;100872.66;5116636;27;20123;-84
2021/04/18 05:55:46;;;;;;;17.60;11.82;;;;;;;7.91;78.36;100862.25;5114115;27;20127;-84
2021/04/18 05:58:13;;;;;;;16.42;11.00;;;;;;;7.99;77.84;100874.31;5111632;27;20131;-84
2021/04/18 06:00:39;;;;;;;18.35;11.82;;;;;;;7.91;77.15;100867.50;5131758;27;20102;-85
2021/04/18 06:03:06;;;;;;;17.73;11.90;;;;;;;7.92;77.95;100874.50;5137175;27;20027;-85
2021/04/18 06:05:33;;;;;;;18.27;12.40;;;;;;;7.93;78.00;100870.97;5134345;27;20103;-84
2021/04/18 06:08:00;;;;;;;17.00;12.35;;;;;;;7.99;77.76;100871.69;5103193;28;20432;-83
2021/04/18 06:10:26;;;;;;;18.60;11.80;;;;;;;8.00;77.26;100876.03;5129480;27;20055;-83
2021/04/18 06:12:57;;;;;;;17.98;12.00;;;;;;;8.00;76.86;100869.91;5128223;28;20075;-85
2021/04/18 06:15:23;;;;;;;18.15;11.25;;;;;;;8.05;76.94;100874.13;5111471;28;20111;-84
2021/04/18 06:17:49;;;;;;;15.10;11.27;;;;;;;8.06;77.53;100875.84;5111714;27;20107;-84
2021/04/18 06:20:16;;;;;;;18.20;11.73;;;;;;;8.07;77.58;100877.59;5113281;27;20100;-85
2021/04/18 06:22:43;;;;;;;15.82;11.50;;;;;;;8.03;76.93;100864.50;5121917;27;20059;-84
2021/04/18 06:25:11;;;;;;;16.35;11.43;;;;;;;7.97;77.34;100865.56;5117881;27;20151;-84
2021/04/18 06:27:37;;;;;;;16.80;11.68;;;;;;;8.01;78.41;100867.22;5095881;28;20558;-84
2021/04/18 06:30:04;;;;;;;19.58;11.70;;;;;;;8.06;77.46;100867.94;5099051;28;20112;-85
2021/04/18 06:32:31;;;;;;;18.48;11.07;;;;;;;8.00;77.48;100857.59;5118346;27;20146;-86
2021/04/18 06:35:00;;;;;;;16.90;11.45;;;;;;;8.01;76.77;100872.50;5122557;27;20320;-84
2021/04/18 06:37:27;;;;;;;16.80;11.27;;;;;;;8.01;76.77;100867.22;5125209;27;20032;-84
2021/04/18 06:39:55;;;;;;;17.67;11.15;;;;;;;8.04;76.84;100872.38;5132790;27;20048;-84
2021/04/18 06:42:23;;;;;;;18.17;11.90;;;;;;;8.03;77.03;100867.16;5125291;28;20108;-84
2021/04/18 06:44:51;;;;;;;17.80;11.05;;;;;;;8.07;77.14;100872.31;5136610;27;20042;-85
2021/04/18 06:47:20;;;;;;;17.13;11.48;;;;;;;8.15;77.39;100869.47;5136742;27;20039;-85
2021/04/18 06:49:47;;;;;;;17.13;11.38;;;;;;;8.18;77.99;100866.72;5121827;28;20070;-84
2021/04/18 06:52:14;;;;;;;17.48;11.32;;;;;;;8.20;77.16;100866.66;5117830;28;20043;-84
2021/04/18 06:54:41;;;;;;;15.57;11.52;;;;;;;8.13;76.77;100866.00;5117369;28;20067;-84
2021/04/18 06:57:08;;;;;;;18.23;11.27;;;;;;;7.97;77.46;100846.25;5126418;28;20058;-84
2021/04/18 06:59:37;;;;;;;19.58;12.38;;;;;;;8.05;78.26;100860.94;5130004;28;20059;-84
2021/04/18 07:02:05;;;;;;;19.65;12.02;;;;;;;8.05;78.61;100867.97;5130114;28;20055;-82
2021/04/18 07:04:34;;;;;;;18.08;12.05;;;;;;;8.05;79.26;100862.69;5099728;28;20048;-84
2021/04/18 07:07:02;;;;;;;18.33;12.40;;;;;;;8.05;78.84;100871.47;5098379;28;20052;-84
2021/04/18 07:09:28;;;;;;;22.83;13.07;;;;;;;7.97;79.37;100862.94;5116756;28;20118;-83
2021/04/18 07:12:01;;;;;;;20.25;12.90;;;;;;;7.98;80.02;100862.03;5121147;28;20112;-84
2021/04/18 07:14:34;;;;;;;20.80;12.60;;;;;;;8.02;80.38;100863.69;5126251;27;20081;-84
2021/04/18 07:17:11;;;;;;;23.63;14.10;;;;;;;8.04;80.05;100858.34;5134664;27;20039;-85
2021/04/18 07:19:40;;;;;;;23.08;13.73;;;;;;;8.07;80.47;100852.97;5137903;27;20032;-85
2021/04/18 07:22:10;;;;;;;19.15;12.98;;;;;;;8.08;79.75;100849.44;5145663;27;20036;-84
2021/04/18 07:24:52;;;;;;;19.60;13.15;;;;;;;8.15;79.67;100842.22;5116110;28;20047;-82
2021/04/18 07:27:19;;;;;;;21.50;13.52;;;;;;;8.16;79.16;100838.66;5120811;27;20063;-85
2021/04/18 07:29:55;;;;;;;19.88;12.93;;;;;;;7.99;79.23;100816.28;5127874;28;20085;-82
2021/04/18 07:32:24;;;;;;;22.50;13.75;;;;;;;8.23;80.14;100856.03;5138798;28;20048;-82
2021/04/18 07:34:51;;;;;;;21.27;12.88;;;;;;;8.21;79.42;100853.44;5127825;27;20039;-82
2021/04/18 07:37:19;;;;;;;20.63;13.48;;;;;;;8.21;79.71;100850.78;5120145;28;20044;-83
2021/04/18 07:39:48;;;;;;;19.60;13.50;;;;;;;8.24;79.29;100858.63;5132458;27;20118;-81
2021/04/18 07:42:38;;;;;;;21.10;13.32;;;;;;;8.28;80.20;100854.97;5137162;27;20058;-82
2021/04/18 07:45:11;;;;;;;20.38;12.63;;;;;;;8.34;80.40;100861.91;5130222;27;20063;-83
2021/04/18 07:47:43;;;;;;;20.10;13.40;;;;;;;8.33;79.70;100853.13;5125790;28;20035;-83
2021/04/18 07:50:18;;;;;;;20.92;13.50;;;;;;;8.33;78.92;100858.41;5136574;27;20031;-83
2021/04/18 07:52:47;;;;;;;21.85;13.90;;;;;;;8.36;79.72;100849.50;5135805;27;20042;-82
2021/04/18 07:55:16;;;;;;;24.35;13.75;;;;;;;8.49;79.60;100845.59;5140916;27;20154;-83
2021/04/18 07:57:44;;;;;;;18.95;13.43;;;;;;;8.61;78.45;100842.56;5131128;27;20056;-82
2021/04/18 08:00:15;;;;;;;20.70;13.45;;;;;;;8.68;77.59;100845.84;5136652;28;20031;-84
2021/04/18 08:02:47;;;;;;;21.02;13.40;;;;;;;8.77;78.00;100851.72;5133028;27;20047;-83
2021/04/18 08:05:14;;;;;;;24.40;13.65;;;;;;;8.74;77.73;100848.31;5136292;27;20046;-83
2021/04/18 08:07:58;;;;;;;24.15;13.73;;;;;;;8.85;77.75;100847.94;5140160;27;20042;-82
2021/04/18 08:10:37;;;;;;;25.63;14.10;;;;;;;8.90;77.22;100846.91;5126151;28;20130;-83
2021/04/18 08:13:06;;;;;;;22.20;14.55;;;;;;;9.00;77.65;100850.09;5114044;28;20142;-84
2021/04/18 08:15:54;;;;;;;20.65;13.68;;;;;;;9.08;77.22;100842.78;5129104;28;20063;-84
2021/04/18 08:18:42;;;;;;;21.08;13.30;;;;;;;9.07;78.13;100852.47;5122362;28;20051;-83
2021/04/18 08:21:37;;;;;;;20.88;14.30;;;;;;;9.09;79.15;100857.72;5135270;28;20035;-82
2021/04/18 08:24:31;;;;;;;24.10;15.00;;;;;;;9.22;79.11;100856.38;5132803;28;20056;-83
2021/04/18 08:27:01;;;;;;;19.48;13.27;;;;;;;9.33;78.71;100854.22;5136993;27;20019;-83
2021/04/18 08:29:27;;;;;;;20.08;13.35;;;;;;;9.37;78.30;100845.28;5137335;27;20099;-85
2021/04/18 08:32:01;;;;;;;21.70;14.07;;;;;;;9.42;77.85;100851.28;5145536;27;20043;-84
2021/04/18 08:34:43;;;;;;;21.80;12.85;;;;;;;9.48;77.54;100858.13;5124210;28;20047;-84
2021/04/18 08:37:19;;;;;;;20.55;13.80;;;;;;;9.53;77.69;100860.59;5132337;27;20077;-83
2021/04/18 08:39:47;;;;;;;19.33;13.43;;;;;;;9.53;77.93;100861.47;5134388;28;20158;-85
2021/04/18 08:42:24;;;;;;;18.90;13.27;;;;;;;9.48;77.89;100858.97;5134646;27;20039;-83
2021/04/18 08:44:52;;;;;;;20.67;13.95;;;;;;;9.53;78.64;100863.25;5096251;28;20067;-82
2021/04/18 08:47:21;;;;;;;20.13;12.98;;;;;;;9.53;78.46;100860.59;5108409;28;20031;-82
2021/04/18 08:49:49;;;;;;;20.95;13.52;;;;;;;9.57;78.46;100868.38;5143998;27;20091;-82
2021/04/18 08:52:27;;;;;;;22.17;14.05;;;;;;;9.56;77.72;100863.16;5118404;28;20115;-83
2021/04/18 08:54:57;;;;;;;;;;;;;;;9.62;77.73;100873.50;5130734;28;20061;-84
2021/04/18 08:57:24;;;;;;;21.50;13.60;;;;;;;9.54;78.00;100871.13;5124631;27;19979;-83
2021/04/18 08:59:58;;;;;;;23.05;13.18;;;;;;;9.57;78.23;100872.81;5121695;27;20486;-85
2021/04/18 09:02:26;;;;;;;18.95;13.23;;;;;;;9.54;78.35;100865.84;5122347;27;20105;-85
2021/04/18 09:04:58;;;;;;;18.73;13.27;;;;;;;9.53;77.92;100876.47;5115163;28;20075;-84
2021/04/18 09:07:30;;;;;;;20.65;12.45;;;;;;;9.52;78.36;100867.66;5114701;27;20049;-83
2021/04/18 09:09:58;;;;;;;21.40;13.43;;;;;;;9.57;77.64;100875.44;5110794;27;20499;-82
2021/04/18 09:12:25;;;;;;;17.60;13.40;;;;;;;9.50;77.79;100867.72;5115806;27;20044;-84
2021/04/18 09:14:52;;;;;;;22.52;13.10;;;;;;;9.61;77.91;100879.69;5110231;28;20374;-84
2021/04/18 09:17:30;;;;;;;22.23;14.00;;;;;;;9.53;78.48;100881.75;5116214;27;20123;-84
2021/04/18 09:20:08;;;;;;;21.83;13.77;;;;;;;9.40;78.07;100866.31;5118537;27;20071;-83
2021/04/18 09:22:36;;;;;;;19.60;13.48;;;;;;;9.18;77.91;100848.59;5115472;27;20050;-85
2021/04/18 09:25:29;;;;;;;24.60;14.20;;;;;;;9.35;79.21;100881.47;5117290;27;20074;-84
2021/04/18 09:27:56;;;;;;;21.73;13.13;;;;;;;9.24;79.63;100853.69;5109256;27;20051;-84
2021/04/18 09:30:28;;;;;;;20.58;14.23;;;;;;;9.57;79.55;100878.97;5094112;27;20056;-84
2021/04/18 09:32:56;;;;;;;23.48;14.05;;;;;;;9.58;78.72;100858.66;5120436;27;20040;-83
2021/04/18 09:35:25;;;;;;;21.98;13.60;;;;;;;9.75;78.75;100866.88;5126428;27;20084;-83
2021/04/18 09:38:02;;;;;;;20.27;14.85;;;;;;;9.78;78.42;100862.31;5131108;27;20040;-83
2021/04/18 09:40:31;;;;;;;24.65;15.02;;;;;;;9.79;78.00;100869.31;5109509;27;20054;-83
2021/04/18 09:42:58;;;;;;;22.85;14.77;;;;;;;9.78;78.92;100857.03;5110817;28;20101;-84
2021/04/18 09:45:27;;;;;;;22.48;14.27;;;;;;;9.89;79.07;100861.94;5096914;28;20054;-83
2021/04/18 09:48:13;;;;;;;20.73;13.35;;;;;;;9.97;78.73;100866.94;5111177;27;20056;-83
2021/04/18 09:50:43;;;;;;;19.85;13.80;;;;;;;10.08;79.02;100867.38;5107355;28;20498;-84
2021/04/18 09:53:29;;;;;;;24.92;14.30;;;;;;;10.18;79.01;100856.44;5109534;27;20051;-84
2021/04/18 09:56:05;;;;;;;22.08;15.10;;;;;;;10.34;79.14;100861.16;5100880;28;20040;-84
2021/04/18 09:58:37;;;;;;;24.25;13.68;;;;;;;10.37;78.72;100847.81;5112877;27;20074;-84
2021/04/18 10:01:20;;;;;;;21.98;14.25;;;;;;;10.53;78.31;100865.69;5120835;27;20091;-84
2021/04/18 10:03:47;;;;;;;21.25;13.93;;;;;;;10.59;77.23;100856.63;5127401;28;20086;-84
2021/04/18 10:06:15;;;;;;;21.65;13.82;;;;;;;10.67;77.77;100864.28;5126780;27;20153;-82
2021/04/18 10:08:41;;;;;;;20.27;14.25;;;;;;;10.69;76.86;100860.66;5123855;28;20036;-84
2021/04/18 10:11:07;;;;;;;21.60;13.25;;;;;;;10.60;75.08;100861.00;5132457;27;20051;-83
2021/04/18 10:13:56;;;;;;;20.45;14.38;;;;;;;10.40;75.88;100859.13;5128103;28;20055;-80
2021/04/18 10:16:42;;;;;;;21.02;14.02;;;;;;;10.40;77.11;100852.97;5118775;27;20035;-81
2021/04/18 10:19:15;;;;;;;20.33;13.43;;;;;;;10.49;77.14;100857.91;5112251;27;20105;-83
2021/04/18 10:22:01;;;;;;;20.85;13.70;;;;;;;10.54;77.49;100858.59;5115604;28;20432;-83
2021/04/18 10:24:51;;;;;;;21.48;14.40;;;;;;;10.39;77.82;100861.84;5111132;28;20043;-82
2021/04/18 10:27:30;;;;;;;24.40;15.38;;;;;;;10.51;78.40;100866.66;5115566;28;20473;-84
2021/04/18 10:29:57;;;;;;;21.65;13.95;;;;;;;10.70;78.49;100866.81;5115447;28;20059;-84
2021/04/18 10:32:25;;;;;;;20.52;14.50;;;;;;;10.91;77.41;100863.28;5114850;27;20054;-84
2021/04/18 10:34:54;;;;;;;21.33;15.02;;;;;;;11.05;76.64;100855.59;5120822;27;20054;-85
2021/04/18 10:37:26;;;;;;;21.73;13.80;;;;;;;11.09;76.39;100861.66;5097441;28;20058;-85
2021/04/18 10:39:53;;;;;;;22.48;14.55;;;;;;;11.19;75.61;100853.25;5126853;27;20028;-84
2021/04/18 10:42:23;;;;;;;23.23;14.93;;;;;;;11.30;76.01;100850.16;5130164;27;20063;-82
2021/04/18 10:44:50;;;;;;;19.70;14.40;;;;;;;11.56;76.64;100849.00;5106015;28;20043;-81
2021/04/18 10:47:17;;;;;;;21.73;14.10;;;;;;;11.92;74.05;100850.06;5120295;28;20062;-82
2021/04/18 10:49:49;;;;;;;21.33;14.02;;;;;;;12.03;73.54;100846.94;5115896;27;20044;-83
2021/04/18 10:52:18;;;;;;;20.67;14.00;;;;;;;12.31;73.04;100843.84;5115715;28;20044;-82
2021/04/18 10:54:44;;;;;;;16.95;12.38;;;;;;;12.58;69.91;100841.69;5119896;27;20425;-83
2021/04/18 10:57:13;;;;;;;18.42;11.73;;;;;;;12.94;68.95;100847.84;5115561;27;20047;-85
2021/04/18 10:59:44;;;;;;;15.93;11.40;;;;;;;13.06;67.15;100835.78;5113551;27;20073;-83
2021/04/18 11:02:10;;;;;;;16.30;11.65;;;;;;;13.10;66.59;100832.00;5098730;28;20044;-84
2021/04/18 11:04:36;;;;;;;15.98;11.63;;;;;;;12.95;65.49;100832.75;5120656;28;20044;-86
2021/04/18 11:07:05;;;;;;;17.65;12.05;;;;;;;12.83;67.43;100839.56;5120593;27;20073;-87
2021/04/18 11:09:37;;;;;;;16.17;11.27;;;;;;;12.86;67.25;100830.56;5095326;28;20043;-87
2021/04/18 11:12:23;;;;;;;18.45;11.75;;;;;;;12.77;65.90;100833.66;5110843;27;20047;-86
2021/04/18 11:14:59;;;;;;;15.40;11.10;;;;;;;12.71;67.70;100823.34;5112985;28;20043;-88
2021/04/18 11:17:26;;;;;;;15.93;10.40;;;;;;;12.69;67.47;100820.78;5111099;28;20052;-84
2021/04/18 11:19:53;;;;;;;17.75;10.80;;;;;;;12.68;66.68;100824.38;5111542;28;20060;-85
2021/04/18 11:22:20;;;;;;;18.10;11.07;;;;;;;12.62;65.71;100820.19;5114345;27;20047;-83
2021/04/18 11:24:48;;;;;;;15.20;11.05;;;;;;;12.36;66.60;100823.25;5120230;27;20154;-83
2021/04/18 11:27:14;;;;;;;18.27;10.98;;;;;;;12.22;67.44;100820.41;5122526;27;20055;-83
2021/04/18 11:29:44;;;;;;;14.13;9.60;;;;;;;12.15;66.67;100827.78;5117551;28;20276;-82